sensor_id;sensor_type;location;lat;lon;timestamp;pressure;altitude;pressure_sealevel;temperature;humidity
7200;BME280;3641;49.082;8.200;2023-02-04T00:02:21;101774.69;;;7.67;97.17
7200;BME280;3641;49.082;8.200;2023-02-04T00:04:48;101773.78;;;7.77;96.20
7200;BME280;3641;49.082;8.200;2023-02-04T00:07:14;101777.69;;;7.63;96.54
7200;BME280;3641;49.082;8.200;2023-02-04T00:09:42;101783.69;;;7.67;97.22
7200;BME280;3641;49.082;8.200;2023-02-04T00:12:12;101784.91;;;7.74;95.82
7200;BME280;3641;49.082;8.200;2023-02-04T00:14:38;101787.78;;;7.73;96.46
7200;BME280;3641;49.082;8.200;2023-02-04T00:17:05;101785.50;;;7.78;96.29
7200;BME280;3641;49.082;8.200;2023-02-04T00:19:32;101787.69;;;7.63;96.90
7200;BME280;3641;49.082;8.200;2023-02-04T00:21:58;101774.03;;;7.74;96.34
7200;BME280;3641;49.082;8.200;2023-02-04T00:24:25;101773.53;;;7.80;95.99
7200;BME280;3641;49.082;8.200;2023-02-04T00:26:52;101778.56;;;7.85;95.17
7200;BME280;3641;49.082;8.200;2023-02-04T00:29:19;101781.47;;;7.72;95.93
7200;BME280;3641;49.082;8.200;2023-02-04T00:31:46;101777.94;;;7.81;95.65
7200;BME280;3641;49.082;8.200;2023-02-04T00:34:12;101792.63;;;7.90;95.32
7200;BME280;3641;49.082;8.200;2023-02-04T00:36:39;101793.72;;;7.88;95.14
7200;BME280;3641;49.082;8.200;2023-02-04T00:39:05;101785.00;;;7.84;95.27
7200;BME280;3641;49.082;8.200;2023-02-04T00:41:32;101784.72;;;7.87;95.32
7200;BME280;3641;49.082;8.200;2023-02-04T00:43:58;101778.00;;;7.91;94.76
7200;BME280;3641;49.082;8.200;2023-02-04T00:46:26;101792.75;;;7.89;94.34
7200;BME280;3641;49.082;8.200;2023-02-04T00:48:52;101792.16;;;7.85;95.28
7200;BME280;3641;49.082;8.200;2023-02-04T00:51:19;101796.44;;;7.88;95.40
7200;BME280;3641;49.082;8.200;2023-02-04T00:53:45;101792.88;;;7.87;95.37
7200;BME280;3641;49.082;8.200;2023-02-04T00:56:12;101799.75;;;7.91;94.92
7200;BME280;3641;49.082;8.200;2023-02-04T00:58:38;101795.78;;;7.95;95.10
7200;BME280;3641;49.082;8.200;2023-02-04T01:01:05;101791.34;;;7.94;95.19
7200;BME280;3641;49.082;8.200;2023-02-04T01:03:32;101788.75;;;7.93;95.00
7200;BME280;3641;49.082;8.200;2023-02-04T01:05:59;101802.09;;;7.96;94.52
7200;BME280;3641;49.082;8.200;2023-02-04T01:08:25;101803.63;;;7.89;95.48
7200;BME280;3641;49.082;8.200;2023-02-04T01:10:52;101788.34;;;7.97;94.08
7200;BME280;3641;49.082;8.200;2023-02-04T01:13:18;101794.69;;;7.98;94.38
7200;BME280;3641;49.082;8.200;2023-02-04T01:15:45;101800.13;;;7.98;94.22
7200;BME280;3641;49.082;8.200;2023-02-04T01:18:11;101797.84;;;8.03;93.93
7200;BME280;3641;49.082;8.200;2023-02-04T01:20:39;101793.78;;;7.97;94.82
7200;BME280;3641;49.082;8.200;2023-02-04T01:23:06;101801.38;;;7.94;95.58
7200;BME280;3641;49.082;8.200;2023-02-04T01:25:33;101806.09;;;7.92;95.47
7200;BME280;3641;49.082;8.200;2023-02-04T01:27:59;101809.25;;;7.97;94.77
7200;BME280;3641;49.082;8.200;2023-02-04T01:30:26;101809.66;;;7.92;95.13
7200;BME280;3641;49.082;8.200;2023-02-04T01:32:52;101803.22;;;7.93;95.37
7200;BME280;3641;49.082;8.200;2023-02-04T01:35:19;101801.09;;;7.97;94.44
7200;BME280;3641;49.082;8.200;2023-02-04T01:37:46;101793.09;;;7.95;94.63
7200;BME280;3641;49.082;8.200;2023-02-04T01:40:13;101799.25;;;7.97;94.36
7200;BME280;3641;49.082;8.200;2023-02-04T01:42:40;101797.66;;;7.95;94.97
7200;BME280;3641;49.082;8.200;2023-02-04T01:45:07;101798.00;;;8.02;94.29
7200;BME280;3641;49.082;8.200;2023-02-04T01:47:34;101804.16;;;8.04;93.81
7200;BME280;3641;49.082;8.200;2023-02-04T01:50:00;101808.28;;;7.98;94.77
7200;BME280;3641;49.082;8.200;2023-02-04T01:52:31;101801.69;;;8.00;94.13
7200;BME280;3641;49.082;8.200;2023-02-04T01:55:01;101805.03;;;8.04;93.90
7200;BME280;3641;49.082;8.200;2023-02-04T01:57:27;101804.88;;;8.06;93.72
7200;BME280;3641;49.082;8.200;2023-02-04T01:59:55;101812.75;;;8.09;93.10
7200;BME280;3641;49.082;8.200;2023-02-04T02:02:42;101813.50;;;8.11;93.41
7200;BME280;3641;49.082;8.200;2023-02-04T02:05:10;101827.25;;;8.09;93.23
7200;BME280;3641;49.082;8.200;2023-02-04T02:07:37;101833.94;;;8.05;94.02
7200;BME280;3641;49.082;8.200;2023-02-04T02:10:07;101829.50;;;8.04;93.23
7200;BME280;3641;49.082;8.200;2023-02-04T02:12:34;101833.88;;;7.95;95.02
7200;BME280;3641;49.082;8.200;2023-02-04T02:15:01;101833.16;;;7.93;94.71
7200;BME280;3641;49.082;8.200;2023-02-04T02:17:28;101832.88;;;7.96;94.58
7200;BME280;3641;49.082;8.200;2023-02-04T02:19:55;101837.44;;;7.96;95.11
7200;BME280;3641;49.082;8.200;2023-02-04T02:22:26;101837.44;;;7.96;95.02
7200;BME280;3641;49.082;8.200;2023-02-04T02:24:55;101844.75;;;7.95;94.46
7200;BME280;3641;49.082;8.200;2023-02-04T02:27:21;101848.19;;;7.97;95.15
7200;BME280;3641;49.082;8.200;2023-02-04T02:29:49;101843.13;;;7.93;95.73
7200;BME280;3641;49.082;8.200;2023-02-04T02:32:16;101858.53;;;7.82;96.23
7200;BME280;3641;49.082;8.200;2023-02-04T02:34:43;101857.47;;;7.95;95.71
7200;BME280;3641;49.082;8.200;2023-02-04T02:37:10;101858.06;;;7.98;95.37
7200;BME280;3641;49.082;8.200;2023-02-04T02:39:37;101854.91;;;7.93;94.88
7200;BME280;3641;49.082;8.200;2023-02-04T02:42:06;101866.41;;;7.86;97.87
7200;BME280;3641;49.082;8.200;2023-02-04T02:44:33;101869.72;;;7.89;95.97
7200;BME280;3641;49.082;8.200;2023-02-04T02:47:00;101870.00;;;7.86;96.18
7200;BME280;3641;49.082;8.200;2023-02-04T02:49:27;101863.19;;;7.92;96.26
7200;BME280;3641;49.082;8.200;2023-02-04T02:51:55;101868.50;;;7.93;95.80
7200;BME280;3641;49.082;8.200;2023-02-04T02:54:24;101874.91;;;7.92;95.51
7200;BME280;3641;49.082;8.200;2023-02-04T02:56:52;101874.31;;;7.89;95.81
7200;BME280;3641;49.082;8.200;2023-02-04T02:59:21;101873.19;;;7.91;95.44
7200;BME280;3641;49.082;8.200;2023-02-04T03:01:50;101880.94;;;7.96;95.67
7200;BME280;3641;49.082;8.200;2023-02-04T03:04:19;101882.47;;;7.89;96.14
7200;BME280;3641;49.082;8.200;2023-02-04T03:06:47;101878.91;;;7.88;95.87
7200;BME280;3641;49.082;8.200;2023-02-04T03:09:14;101880.00;;;7.86;95.56
7200;BME280;3641;49.082;8.200;2023-02-04T03:11:40;101879.16;;;7.85;96.32
7200;BME280;3641;49.082;8.200;2023-02-04T03:14:07;101882.47;;;7.89;95.40
7200;BME280;3641;49.082;8.200;2023-02-04T03:16:35;101883.59;;;7.86;96.05
7200;BME280;3641;49.082;8.200;2023-02-04T03:19:04;101879.16;;;7.85;95.61
7200;BME280;3641;49.082;8.200;2023-02-04T03:21:31;101897.31;;;7.85;95.92
7200;BME280;3641;49.082;8.200;2023-02-04T03:23:58;101896.19;;;7.87;96.66
7200;BME280;3641;49.082;8.200;2023-02-04T03:26:25;101898.66;;;7.90;95.93
7200;BME280;3641;49.082;8.200;2023-02-04T03:28:52;101899.13;;;7.95;95.22
7200;BME280;3641;49.082;8.200;2023-02-04T03:31:19;101896.41;;;7.95;94.61
7200;BME280;3641;49.082;8.200;2023-02-04T03:33:47;101887.66;;;7.92;95.40
7200;BME280;3641;49.082;8.200;2023-02-04T03:36:14;101893.22;;;7.90;96.67
7200;BME280;3641;49.082;8.200;2023-02-04T03:38:40;101902.22;;;7.91;96.09
7200;BME280;3641;49.082;8.200;2023-02-04T03:41:07;101905.16;;;7.99;94.95
7200;BME280;3641;49.082;8.200;2023-02-04T03:43:33;101913.22;;;7.89;95.91
7200;BME280;3641;49.082;8.200;2023-02-04T03:46:00;101908.69;;;7.90;95.37
7200;BME280;3641;49.082;8.200;2023-02-04T03:48:26;101912.84;;;7.94;95.22
7200;BME280;3641;49.082;8.200;2023-02-04T03:50:54;101913.09;;;7.91;95.28
7200;BME280;3641;49.082;8.200;2023-02-04T03:53:20;101916.72;;;7.80;95.67
7200;BME280;3641;49.082;8.200;2023-02-04T03:55:47;101931.19;;;7.80;95.69
7200;BME280;3641;49.082;8.200;2023-02-04T03:58:13;101937.09;;;7.86;nan
7200;BME280;3641;49.082;8.200;2023-02-04T04:00:40;101934.38;;;7.86;94.76
7200;BME280;3641;49.082;8.200;2023-02-04T04:03:06;101946.25;;;7.85;95.93
7200;BME280;3641;49.082;8.200;2023-02-04T04:05:33;101952.44;;;7.87;95.76
7200;BME280;3641;49.082;8.200;2023-02-04T04:08:01;101950.00;;;7.72;97.06
7200;BME280;3641;49.082;8.200;2023-02-04T04:10:27;101959.66;;;7.54;98.09
7200;BME280;3641;49.082;8.200;2023-02-04T04:12:56;101948.53;;;7.57;98.19
7200;BME280;3641;49.082;8.200;2023-02-04T04:15:22;101951.97;;;7.70;95.89
7200;BME280;3641;49.082;8.200;2023-02-04T04:17:49;101948.50;;;7.68;95.89
7200;BME280;3641;49.082;8.200;2023-02-04T04:20:16;101947.28;;;7.72;95.77
7200;BME280;3641;49.082;8.200;2023-02-04T04:22:42;101955.94;;;7.66;95.75
7200;BME280;3641;49.082;8.200;2023-02-04T04:25:11;101949.13;;;7.72;94.64
7200;BME280;3641;49.082;8.200;2023-02-04T04:27:37;101959.63;;;7.76;94.76
7200;BME280;3641;49.082;8.200;2023-02-04T04:30:04;101958.78;;;7.64;94.53
7200;BME280;3641;49.082;8.200;2023-02-04T04:32:31;101954.44;;;7.62;95.16
7200;BME280;3641;49.082;8.200;2023-02-04T04:34:57;101963.97;;;7.68;95.13
7200;BME280;3641;49.082;8.200;2023-02-04T04:37:24;101964.56;;;7.71;94.19
7200;BME280;3641;49.082;8.200;2023-02-04T04:39:50;101961.38;;;7.66;94.65
7200;BME280;3641;49.082;8.200;2023-02-04T04:42:18;101968.41;;;7.69;93.88
7200;BME280;3641;49.082;8.200;2023-02-04T04:44:44;101968.91;;;7.62;94.97
7200;BME280;3641;49.082;8.200;2023-02-04T04:47:11;101969.03;;;7.61;94.44
7200;BME280;3641;49.082;8.200;2023-02-04T04:49:37;101973.97;;;7.67;94.42
7200;BME280;3641;49.082;8.200;2023-02-04T04:52:04;101974.75;;;7.58;94.61
7200;BME280;3641;49.082;8.200;2023-02-04T04:54:30;101982.59;;;7.61;93.95
7200;BME280;3641;49.082;8.200;2023-02-04T04:56:57;101970.16;;;7.58;93.87
7200;BME280;3641;49.082;8.200;2023-02-04T04:59:25;101968.66;;;7.54;94.33
7200;BME280;3641;49.082;8.200;2023-02-04T05:01:51;101967.47;;;7.36;96.79
7200;BME280;3641;49.082;8.200;2023-02-04T05:04:18;101964.09;;;7.43;95.20
7200;BME280;3641;49.082;8.200;2023-02-04T05:06:44;101963.88;;;7.35;96.09
7200;BME280;3641;49.082;8.200;2023-02-04T05:09:11;101960.53;;;7.32;96.58
7200;BME280;3641;49.082;8.200;2023-02-04T05:11:39;101962.03;;;7.36;95.58
7200;BME280;3641;49.082;8.200;2023-02-04T05:14:05;101962.63;;;7.39;95.49
7200;BME280;3641;49.082;8.200;2023-02-04T05:16:33;101976.34;;;7.38;97.08
7200;BME280;3641;49.082;8.200;2023-02-04T05:19:00;101979.66;;;7.41;94.86
7200;BME280;3641;49.082;8.200;2023-02-04T05:21:26;101969.94;;;7.39;94.82
7200;BME280;3641;49.082;8.200;2023-02-04T05:23:52;101975.22;;;7.29;96.64
7200;BME280;3641;49.082;8.200;2023-02-04T05:26:19;101969.66;;;7.31;95.80
7200;BME280;3641;49.082;8.200;2023-02-04T05:28:45;101975.50;;;7.37;94.96
7200;BME280;3641;49.082;8.200;2023-02-04T05:31:12;101975.75;;;7.34;95.27
7200;BME280;3641;49.082;8.200;2023-02-04T05:33:40;101982.28;;;7.32;95.61
7200;BME280;3641;49.082;8.200;2023-02-04T05:36:06;101974.63;;;7.14;97.21
7200;BME280;3641;49.082;8.200;2023-02-04T05:38:32;101980.03;;;7.25;95.78
7200;BME280;3641;49.082;8.200;2023-02-04T05:40:59;101983.25;;;7.31;95.16
7200;BME280;3641;49.082;8.200;2023-02-04T05:43:25;101980.53;;;7.31;94.88
7200;BME280;3641;49.082;8.200;2023-02-04T05:45:52;101974.63;;;7.14;96.45
7200;BME280;3641;49.082;8.200;2023-02-04T05:48:18;101992.66;;;7.15;95.35
7200;BME280;3641;49.082;8.200;2023-02-04T05:50:46;101980.16;;;7.13;95.37
7200;BME280;3641;49.082;8.200;2023-02-04T05:53:12;101988.97;;;7.27;94.60
7200;BME280;3641;49.082;8.200;2023-02-04T05:55:39;101990.41;;;7.20;95.54
7200;BME280;3641;49.082;8.200;2023-02-04T05:58:05;101994.50;;;7.26;94.49
7200;BME280;3641;49.082;8.200;2023-02-04T06:00:32;101996.59;;;7.22;94.76
7200;BME280;3641;49.082;8.200;2023-02-04T06:02:58;102004.97;;;7.19;95.08
7200;BME280;3641;49.082;8.200;2023-02-04T06:05:25;102010.03;;;7.13;95.78
7200;BME280;3641;49.082;8.200;2023-02-04T06:07:53;102014.88;;;7.20;94.49
7200;BME280;3641;49.082;8.200;2023-02-04T06:10:19;102017.81;;;7.17;94.62
7200;BME280;3641;49.082;8.200;2023-02-04T06:12:46;102017.47;;;7.22;93.92
7200;BME280;3641;49.082;8.200;2023-02-04T06:15:13;102021.91;;;7.12;95.39
7200;BME280;3641;49.082;8.200;2023-02-04T06:17:39;102029.91;;;7.13;94.60
7200;BME280;3641;49.082;8.200;2023-02-04T06:20:07;102034.97;;;7.06;94.37
7200;BME280;3641;49.082;8.200;2023-02-04T06:22:33;102038.69;;;7.17;94.21
7200;BME280;3641;49.082;8.200;2023-02-04T06:25:01;102035.47;;;7.12;94.25
7200;BME280;3641;49.082;8.200;2023-02-04T06:27:28;102037.31;;;7.11;94.17
7200;BME280;3641;49.082;8.200;2023-02-04T06:29:54;102040.88;;;7.00;93.87
7200;BME280;3641;49.082;8.200;2023-02-04T06:32:22;102042.13;;;7.07;93.82
7200;BME280;3641;49.082;8.200;2023-02-04T06:34:49;102037.06;;;7.14;93.68
7200;BME280;3641;49.082;8.200;2023-02-04T06:37:15;102043.13;;;7.18;93.18
7200;BME280;3641;49.082;8.200;2023-02-04T06:39:42;102045.09;;;7.16;93.04
7200;BME280;3641;49.082;8.200;2023-02-04T06:42:10;102048.06;;;7.13;92.85
7200;BME280;3641;49.082;8.200;2023-02-04T06:44:36;102055.22;;;7.02;93.91
7200;BME280;3641;49.082;8.200;2023-02-04T06:47:03;102053.47;;;7.01;93.74
7200;BME280;3641;49.082;8.200;2023-02-04T06:49:29;102057.91;;;7.02;93.76
7200;BME280;3641;49.082;8.200;2023-02-04T06:51:56;102065.28;;;6.89;94.27
7200;BME280;3641;49.082;8.200;2023-02-04T06:54:22;102054.88;;;6.83;94.31
7200;BME280;3641;49.082;8.200;2023-02-04T06:56:49;102050.38;;;6.95;93.81
7200;BME280;3641;49.082;8.200;2023-02-04T06:59:17;102054.31;;;7.02;93.31
7200;BME280;3641;49.082;8.200;2023-02-04T07:01:43;102057.91;;;7.02;93.28
7200;BME280;3641;49.082;8.200;2023-02-04T07:04:09;102059.75;;;7.02;93.12
7200;BME280;3641;49.082;8.200;2023-02-04T07:06:36;102066.44;;;7.09;92.81
7200;BME280;3641;49.082;8.200;2023-02-04T07:09:02;102062.75;;;7.10;92.78
7200;BME280;3641;49.082;8.200;2023-02-04T07:11:29;102061.00;;;7.09;92.43
7200;BME280;3641;49.082;8.200;2023-02-04T07:13:55;102071.63;;;7.01;92.99
7200;BME280;3641;49.082;8.200;2023-02-04T07:16:23;102076.69;;;7.05;93.02
7200;BME280;3641;49.082;8.200;2023-02-04T07:18:50;102087.31;;;7.08;92.89
7200;BME280;3641;49.082;8.200;2023-02-04T07:21:16;102096.06;;;7.01;93.29
7200;BME280;3641;49.082;8.200;2023-02-04T07:23:43;102101.38;;;7.02;93.16
7200;BME280;3641;49.082;8.200;2023-02-04T07:26:09;102101.88;;;7.07;92.77
7200;BME280;3641;49.082;8.200;2023-02-04T07:28:36;102107.78;;;7.13;92.50
7200;BME280;3641;49.082;8.200;2023-02-04T07:31:03;102114.97;;;7.14;92.35
7200;BME280;3641;49.082;8.200;2023-02-04T07:33:31;102106.22;;;7.10;93.13
7200;BME280;3641;49.082;8.200;2023-02-04T07:35:57;102123.97;;;7.14;92.50
7200;BME280;3641;49.082;8.200;2023-02-04T07:38:23;102114.16;;;7.00;93.68
7200;BME280;3641;49.082;8.200;2023-02-04T07:40:50;102115.06;;;7.01;93.49
7200;BME280;3641;49.082;8.200;2023-02-04T07:43:16;102113.47;;;7.09;92.74
7200;BME280;3641;49.082;8.200;2023-02-04T07:45:43;102124.22;;;7.11;92.73
7200;BME280;3641;49.082;8.200;2023-02-04T07:48:09;102132.47;;;7.09;93.16
7200;BME280;3641;49.082;8.200;2023-02-04T07:50:37;102136.19;;;7.08;92.79
7200;BME280;3641;49.082;8.200;2023-02-04T07:53:04;102136.44;;;7.05;92.47
7200;BME280;3641;49.082;8.200;2023-02-04T07:55:30;102143.81;;;7.03;93.23
7200;BME280;3641;49.082;8.200;2023-02-04T07:57:57;102142.72;;;7.06;92.95
7200;BME280;3641;49.082;8.200;2023-02-04T08:00:23;102149.53;;;7.12;92.60
7200;BME280;3641;49.082;8.200;2023-02-04T08:02:50;102165.94;;;7.10;92.80
7200;BME280;3641;49.082;8.200;2023-02-04T08:05:16;102164.09;;;7.11;92.54
7200;BME280;3641;49.082;8.200;2023-02-04T08:07:44;102165.94;;;7.10;92.47
7200;BME280;3641;49.082;8.200;2023-02-04T08:10:11;102164.09;;;7.11;93.05
7200;BME280;3641;49.082;8.200;2023-02-04T08:12:38;102175.56;;;7.14;92.85
7200;BME280;3641;49.082;8.200;2023-02-04T08:15:05;102179.88;;;7.05;92.39
7200;BME280;3641;49.082;8.200;2023-02-04T08:17:32;102173.22;;;7.09;91.67
7200;BME280;3641;49.082;8.200;2023-02-04T08:19:59;102178.78;;;7.19;91.49
7200;BME280;3641;49.082;8.200;2023-02-04T08:22:25;102192.84;;;7.13;92.01
7200;BME280;3641;49.082;8.200;2023-02-04T08:24:53;102190.13;;;7.13;91.56
7200;BME280;3641;49.082;8.200;2023-02-04T08:27:19;102192.59;;;7.16;91.61
7200;BME280;3641;49.082;8.200;2023-02-04T08:29:46;102186.56;;;7.13;92.21
7200;BME280;3641;49.082;8.200;2023-02-04T08:32:13;102190.28;;;7.12;92.61
7200;BME280;3641;49.082;8.200;2023-02-04T08:34:40;102183.84;;;7.13;92.11
7200;BME280;3641;49.082;8.200;2023-02-04T08:37:08;102191.59;;;7.06;92.65
7200;BME280;3641;49.082;8.200;2023-02-04T08:39:34;102190.78;;;7.17;92.75
7200;BME280;3641;49.082;8.200;2023-02-04T08:42:02;102190.66;;;7.18;92.36
7200;BME280;3641;49.082;8.200;2023-02-04T08:44:29;102199.94;;;7.27;91.76
7200;BME280;3641;49.082;8.200;2023-02-04T08:46:55;102203.66;;;7.26;92.21
7200;BME280;3641;49.082;8.200;2023-02-04T08:49:21;102206.00;;;7.31;92.02
7200;BME280;3641;49.082;8.200;2023-02-04T08:51:48;102207.38;;;7.36;91.43
7200;BME280;3641;49.082;8.200;2023-02-04T08:54:14;102210.84;;;7.38;91.71
7200;BME280;3641;49.082;8.200;2023-02-04T08:56:41;102212.47;;;7.41;91.66
7200;BME280;3641;49.082;8.200;2023-02-04T08:59:09;102217.66;;;7.44;91.44
7200;BME280;3641;49.082;8.200;2023-02-04T09:01:36;102214.22;;;7.42;91.11
7200;BME280;3641;49.082;8.200;2023-02-04T09:04:02;102223.22;;;7.42;90.96
7200;BME280;3641;49.082;8.200;2023-02-04T09:06:29;102222.22;;;7.43;90.83
7200;BME280;3641;49.082;8.200;2023-02-04T09:08:56;102225.81;;;7.44;91.47
7200;BME280;3641;49.082;8.200;2023-02-04T09:11:22;102220.16;;;7.47;91.48
7200;BME280;3641;49.082;8.200;2023-02-04T09:13:50;102224.22;;;7.53;90.78
7200;BME280;3641;49.082;8.200;2023-02-04T09:16:18;102227.06;;;7.51;90.59
7200;BME280;3641;49.082;8.200;2023-02-04T09:18:44;102234.34;;;7.51;90.28
7200;BME280;3641;49.082;8.200;2023-02-04T09:21:11;102236.38;;;7.60;90.51
7200;BME280;3641;49.082;8.200;2023-02-04T09:23:37;102234.03;;;7.67;90.72
7200;BME280;3641;49.082;8.200;2023-02-04T09:26:04;102224.00;;;7.67;90.02
7200;BME280;3641;49.082;8.200;2023-02-04T09:28:30;102226.63;;;7.69;89.88
7200;BME280;3641;49.082;8.200;2023-02-04T09:30:57;102226.38;;;7.72;90.20
7200;BME280;3641;49.082;8.200;2023-02-04T09:33:25;102234.78;;;7.80;89.59
7200;BME280;3641;49.082;8.200;2023-02-04T09:35:52;102228.63;;;7.78;89.52
7200;BME280;3641;49.082;8.200;2023-02-04T09:38:19;102241.25;;;7.79;90.55
7200;BME280;3641;49.082;8.200;2023-02-04T09:40:48;102236.78;;;7.78;90.04
7200;BME280;3641;49.082;8.200;2023-02-04T09:43:20;102236.16;;;7.74;89.80
7200;BME280;3641;49.082;8.200;2023-02-04T09:45:49;102237.88;;;7.75;90.53
7200;BME280;3641;49.082;8.200;2023-02-04T09:48:16;102247.28;;;7.82;90.64
7200;BME280;3641;49.082;8.200;2023-02-04T09:50:44;102250.16;;;7.92;89.81
7200;BME280;3641;49.082;8.200;2023-02-04T09:53:13;102242.72;;;7.94;89.88
7200;BME280;3641;49.082;8.200;2023-02-04T09:55:43;102242.84;;;7.93;90.08
7200;BME280;3641;49.082;8.200;2023-02-04T09:58:13;102248.56;;;7.90;87.88
7200;BME280;3641;49.082;8.200;2023-02-04T10:00:42;102253.47;;;7.85;88.36
7200;BME280;3641;49.082;8.200;2023-02-04T10:03:13;102249.16;;;7.93;89.05
7200;BME280;3641;49.082;8.200;2023-02-04T10:05:41;102254.81;;;7.79;86.84
7200;BME280;3641;49.082;8.200;2023-02-04T10:08:12;102261.25;;;7.89;89.25
7200;BME280;3641;49.082;8.200;2023-02-04T10:10:39;102256.19;;;7.96;89.49
7200;BME280;3641;49.082;8.200;2023-02-04T10:13:10;102260.16;;;7.92;86.96
7200;BME280;3641;49.082;8.200;2023-02-04T10:15:39;102258.81;;;7.97;88.58
7200;BME280;3641;49.082;8.200;2023-02-04T10:18:06;102267.97;;;7.96;88.38
7200;BME280;3641;49.082;8.200;2023-02-04T10:20:33;102270.69;;;8.08;87.67
7200;BME280;3641;49.082;8.200;2023-02-04T10:22:59;102265.47;;;7.93;84.04
7200;BME280;3641;49.082;8.200;2023-02-04T10:25:27;102272.03;;;8.02;86.92
7200;BME280;3641;49.082;8.200;2023-02-04T10:27:55;102269.34;;;8.13;88.53
7200;BME280;3641;49.082;8.200;2023-02-04T10:30:23;102263.03;;;8.02;84.97
7200;BME280;3641;49.082;8.200;2023-02-04T10:32:51;102270.09;;;8.04;85.46
7200;BME280;3641;49.082;8.200;2023-02-04T10:35:19;102268.84;;;8.08;85.84
7200;BME280;3641;49.082;8.200;2023-02-04T10:37:46;102267.84;;;8.09;84.96
7200;BME280;3641;49.082;8.200;2023-02-04T10:40:29;102274.53;;;8.16;84.81
7200;BME280;3641;49.082;8.200;2023-02-04T10:42:57;102263.28;;;8.21;86.92
7200;BME280;3641;49.082;8.200;2023-02-04T10:45:25;102273.56;;;8.29;86.14
7200;BME280;3641;49.082;8.200;2023-02-04T10:47:53;102281.84;;;8.16;82.51
7200;BME280;3641;49.082;8.200;2023-02-04T10:50:21;102283.47;;;8.18;84.51
7200;BME280;3641;49.082;8.200;2023-02-04T10:52:50;102282.09;;;8.24;86.41
7200;BME280;3641;49.082;8.200;2023-02-04T10:55:21;102275.44;;;8.28;85.67
7200;BME280;3641;49.082;8.200;2023-02-04T10:57:50;102268.97;;;8.29;84.67
7200;BME280;3641;49.082;8.200;2023-02-04T11:00:18;102266.63;;;8.25;84.95
7200;BME280;3641;49.082;8.200;2023-02-04T11:02:49;102265.16;;;8.32;82.77
7200;BME280;3641;49.082;8.200;2023-02-04T11:05:20;102260.31;;;8.35;84.18
7200;BME280;3641;49.082;8.200;2023-02-04T11:07:48;102266.38;;;8.28;79.97
7200;BME280;3641;49.082;8.200;2023-02-04T11:10:16;102263.41;;;8.31;79.70
7200;BME280;3641;49.082;8.200;2023-02-04T11:12:44;102260.81;;;8.29;79.56
7200;BME280;3641;49.082;8.200;2023-02-04T11:15:44;102276.94;;;8.44;82.77
7200;BME280;3641;49.082;8.200;2023-02-04T11:18:25;102273.56;;;8.40;80.32
7200;BME280;3641;49.082;8.200;2023-02-04T11:20:55;102269.53;;;8.46;82.19
7200;BME280;3641;49.082;8.200;2023-02-04T11:23:33;102266.16;;;8.53;83.26
7200;BME280;3641;49.082;8.200;2023-02-04T11:26:06;102269.28;;;8.49;82.56
7200;BME280;3641;49.082;8.200;2023-02-04T11:28:55;102270.63;;;8.43;80.96
7200;BME280;3641;49.082;8.200;2023-02-04T11:31:41;102268.00;;;8.42;79.74
7200;BME280;3641;49.082;8.200;2023-02-04T11:34:11;102260.72;;;8.53;82.71
7200;BME280;3641;49.082;8.200;2023-02-04T11:36:54;102260.34;;;8.58;80.44
7200;BME280;3641;49.082;8.200;2023-02-04T11:39:21;102264.56;;;8.62;81.27
7200;BME280;3641;49.082;8.200;2023-02-04T11:41:49;102265.66;;;8.71;82.24
7200;BME280;3641;49.082;8.200;2023-02-04T11:44:16;102265.78;;;8.69;79.85
7200;BME280;3641;49.082;8.200;2023-02-04T11:46:49;102256.38;;;8.73;80.04
7200;BME280;3641;49.082;8.200;2023-02-04T11:49:20;102259.44;;;8.80;82.00
7200;BME280;3641;49.082;8.200;2023-02-04T11:51:48;102260.34;;;8.81;81.96
7200;BME280;3641;49.082;8.200;2023-02-04T11:54:15;102266.75;;;8.80;81.58
7200;BME280;3641;49.082;8.200;2023-02-04T11:56:44;102267.00;;;8.77;82.28
7200;BME280;3641;49.082;8.200;2023-02-04T11:59:11;102260.47;;;8.79;79.23
7200;BME280;3641;49.082;8.200;2023-02-04T12:01:38;102267.00;;;8.88;80.71
7200;BME280;3641;49.082;8.200;2023-02-04T12:04:20;102263.06;;;8.81;82.51
7200;BME280;3641;49.082;8.200;2023-02-04T12:06:56;102259.44;;;8.91;80.84
7200;BME280;3641;49.082;8.200;2023-02-04T12:09:24;102263.72;;;9.05;78.97
7200;BME280;3641;49.082;8.200;2023-02-04T12:11:52;102264.34;;;9.09;79.87
7200;BME280;3641;49.082;8.200;2023-02-04T12:14:19;102258.25;;;9.17;78.16
7200;BME280;3641;49.082;8.200;2023-02-04T12:16:47;102267.03;;;9.20;76.35
7200;BME280;3641;49.082;8.200;2023-02-04T12:19:16;102256.63;;;9.25;79.53
7200;BME280;3641;49.082;8.200;2023-02-04T12:21:43;102258.63;;;9.12;76.05
7200;BME280;3641;49.082;8.200;2023-02-04T12:24:10;102255.59;;;9.26;80.33
7200;BME280;3641;49.082;8.200;2023-02-04T12:26:36;102258.59;;;9.23;75.46
7200;BME280;3641;49.082;8.200;2023-02-04T12:29:03;102256.63;;;9.25;80.64
7200;BME280;3641;49.082;8.200;2023-02-04T12:31:30;102262.66;;;9.29;81.00
7200;BME280;3641;49.082;8.200;2023-02-04T12:33:57;102263.91;;;9.25;80.03
7200;BME280;3641;49.082;8.200;2023-02-04T12:36:25;102266.03;;;9.21;81.22
7200;BME280;3641;49.082;8.200;2023-02-04T12:38:53;102266.34;;;9.07;81.28
7200;BME280;3641;49.082;8.200;2023-02-04T12:41:20;102267.69;;;9.01;80.77
7200;BME280;3641;49.082;8.200;2023-02-04T12:43:46;102264.16;;;8.89;79.38
7200;BME280;3641;49.082;8.200;2023-02-04T12:46:14;102264.53;;;8.85;79.89
7200;BME280;3641;49.082;8.200;2023-02-04T12:48:41;102262.41;;;8.77;80.78
7200;BME280;3641;49.082;8.200;2023-02-04T12:51:08;102260.06;;;8.84;80.16
7200;BME280;3641;49.082;8.200;2023-02-04T12:53:36;102265.16;;;8.77;78.13
7200;BME280;3641;49.082;8.200;2023-02-04T12:56:03;102263.28;;;8.89;80.40
7200;BME280;3641;49.082;8.200;2023-02-04T12:58:29;102260.69;;;8.87;76.97
7200;BME280;3641;49.082;8.200;2023-02-04T13:00:56;102261.13;;;9.04;79.67
7200;BME280;3641;49.082;8.200;2023-02-04T13:03:22;102258.50;;;9.14;79.79
7200;BME280;3641;49.082;8.200;2023-02-04T13:05:49;102263.09;;;9.13;79.05
7200;BME280;3641;49.082;8.200;2023-02-04T13:08:16;102263.69;;;9.17;79.89
7200;BME280;3641;49.082;8.200;2023-02-04T13:10:43;102264.69;;;9.16;79.57
7200;BME280;3641;49.082;8.200;2023-02-04T13:13:14;102262.00;;;9.04;77.37
7200;BME280;3641;49.082;8.200;2023-02-04T13:15:41;102268.81;;;9.10;78.39
7200;BME280;3641;49.082;8.200;2023-02-04T13:18:07;102257.78;;;9.12;78.94
7200;BME280;3641;49.082;8.200;2023-02-04T13:20:34;102259.66;;;9.11;70.98
7200;BME280;3641;49.082;8.200;2023-02-04T13:23:01;102261.66;;;9.30;75.51
7200;BME280;3641;49.082;8.200;2023-02-04T13:25:27;102260.41;;;9.34;76.18